CMA CGM Turquoise — A8RB5 — position and weather

sailwx.info

Track history (hours):
 
Tides and Currents Weather Stations Pressure Air Temp Water Temp Dewpoint Dewpoint Depression Visibility Wind Speed Wind Dir Waves Ship Positions

CMA CGM Turquoise

Last reported at 2015-May-24 08:10 UTC. Time now 2015-May-25 07:34 UTC.
Position N 01°11' E 103°40'.

Length 258 m; draft 12.5 m.

Type: Ship. MMSI: 636014059.

Date/timePositionNaut miles runAvg speedWind from/ knotsBaromVisibWave heightAir tempDewpointWater temp
2015-May-24 08:10N 01°11' E 103°40'914.7
2015-May-24 07:33N 01°11' E 103°49'  
2015-May-20 08:16N 22°02' E 114°23'1513.3
2015-May-20 07:06N 22°07' E 114°07'1711.2
2015-May-20 05:33N 22°12' E 113°49'1615.3
2015-May-20 04:31N 22°28' E 113°45'0 0.0
2015-May-19 12:28N 22°27' E 113°45'1213.5
2015-May-19 11:33N 22°15' E 113°48'1010.4
2015-May-19 10:33N 22°05' E 113°52'15 3.1
2015-May-19 05:32N 22°09' E 114°08'8 6.9
2015-May-19 04:24N 22°16' E 114°06'1211.5
2015-May-19 03:19N 22°22' E 113°54'6 7.6
2015-May-19 02:33N 22°27' E 113°53'1 0.4
2015-May-19 01:17N 22°28' E 113°53'0 0.0
2015-May-19 00:23N 22°28' E 113°53'0 0.0
2015-May-18 23:28N 22°28' E 113°53'0 0.0
2015-May-18 21:22N 22°28' E 113°53'0 0.0
2015-May-18 20:21N 22°28' E 113°53'0 0.0
2015-May-18 19:27N 22°28' E 113°53'3 2.9
2015-May-18 18:33N 22°26' E 113°53'12 8.9
2015-May-18 17:13N 22°21' E 114°05'912.7
2015-May-18 16:30N 22°13' E 114°10'9 9.1
2015-May-18 15:33N 22°09' E 114°18'23917.1
2015-May-18 01:33N 23°38' E 118°19'3517.2
2015-May-17 23:30N 24°01' E 118°48'1817.1
2015-May-17 22:27N 24°13' E 119°02'2017.1
2015-May-17 21:17N 24°26' E 119°19'1716.9
2015-May-17 20:19N 24°37' E 119°32'1317.1
2015-May-17 19:33N 24°46' E 119°43'32317.0
2015-May-17 00:29N 29°25' E 122°46'1718.2
2015-May-16 23:32N 29°37' E 122°32'1616.2
2015-May-16 22:33N 29°46' E 122°17'1110.9
2015-May-16 21:33N 29°55' E 122°09'1312.6
2015-May-16 20:33N 29°57' E 121°55'4 3.8
2015-May-16 19:23N 29°59' E 121°50'0 0.0
2015-May-16 18:28N 29°59' E 121°50'0 0.0
2015-May-16 17:28N 29°59' E 121°50'0 0.0
2015-May-16 16:28N 29°59' E 121°50'0 0.0
2015-May-16 15:21N 29°59' E 121°50'0 0.0
2015-May-16 14:33N 29°59' E 121°50'0 0.0
2015-May-16 13:32N 29°59' E 121°50'0 0.0
2015-May-16 12:32N 29°59' E 121°50'0 0.0
2015-May-16 11:31N 29°59' E 121°50'0 0.0
2015-May-16 10:33N 29°59' E 121°50'4 4.0
2015-May-16 09:33N 29°57' E 121°54'1212.4
2015-May-16 08:34N 29°55' E 122°08'1111.0
2015-May-16 07:33N 29°47' E 122°16'1010.2
2015-May-16 06:33N 29°43' E 122°27'1212.2
2015-May-16 05:33N 29°51' E 122°38'1414.3
2015-May-16 04:34N 30°03' E 122°46'1414.1
2015-May-16 03:33N 30°17' E 122°49'1813.5
2015-May-16 02:15N 30°29' E 122°35'1413.3
2015-May-16 01:12N 30°33' E 122°19'812.3
2015-May-16 00:33N 30°34' E 122°10'5 0.3
2015-May-15 08:33N 30°36' E 122°05'1110.3
2015-May-15 07:29N 30°33' E 122°17'1110.2
2015-May-15 06:27N 30°31' E 122°29'  
Track history (hours):
 
Tides and Currents Weather Stations Pressure Air Temp Water Temp Dewpoint Dewpoint Depression Visibility Wind Speed Wind Dir Waves Ship Positions

CMA CGM Turquoise

Last reported at 2015-May-24 08:10 UTC. Time now 2015-May-25 07:34 UTC.
Position N 01°11' E 103°40'.

Length 258 m; draft 12.5 m.

Type: Ship. MMSI: 636014059.

Date/timePositionNaut miles runAvg speedWind from/ knotsBaromVisibWave heightAir tempDewpointWater temp
2015-May-24 08:10N 01°11' E 103°40'914.7
2015-May-24 07:33N 01°11' E 103°49'  
2015-May-20 08:16N 22°02' E 114°23'1513.3
2015-May-20 07:06N 22°07' E 114°07'1711.2
2015-May-20 05:33N 22°12' E 113°49'1615.3
2015-May-20 04:31N 22°28' E 113°45'0 0.0
2015-May-19 12:28N 22°27' E 113°45'1213.5
2015-May-19 11:33N 22°15' E 113°48'1010.4
2015-May-19 10:33N 22°05' E 113°52'15 3.1
2015-May-19 05:32N 22°09' E 114°08'8 6.9
2015-May-19 04:24N 22°16' E 114°06'1211.5
2015-May-19 03:19N 22°22' E 113°54'6 7.6
2015-May-19 02:33N 22°27' E 113°53'1 0.4
2015-May-19 01:17N 22°28' E 113°53'0 0.0
2015-May-19 00:23N 22°28' E 113°53'0 0.0
2015-May-18 23:28N 22°28' E 113°53'0 0.0
2015-May-18 21:22N 22°28' E 113°53'0 0.0
2015-May-18 20:21N 22°28' E 113°53'0 0.0
2015-May-18 19:27N 22°28' E 113°53'3 2.9
2015-May-18 18:33N 22°26' E 113°53'12 8.9
2015-May-18 17:13N 22°21' E 114°05'912.7
2015-May-18 16:30N 22°13' E 114°10'9 9.1
2015-May-18 15:33N 22°09' E 114°18'23917.1
2015-May-18 01:33N 23°38' E 118°19'3517.2
2015-May-17 23:30N 24°01' E 118°48'1817.1
2015-May-17 22:27N 24°13' E 119°02'2017.1
2015-May-17 21:17N 24°26' E 119°19'1716.9
2015-May-17 20:19N 24°37' E 119°32'1317.1
2015-May-17 19:33N 24°46' E 119°43'32317.0
2015-May-17 00:29N 29°25' E 122°46'1718.2
2015-May-16 23:32N 29°37' E 122°32'1616.2
2015-May-16 22:33N 29°46' E 122°17'1110.9
2015-May-16 21:33N 29°55' E 122°09'1312.6
2015-May-16 20:33N 29°57' E 121°55'4 3.8
2015-May-16 19:23N 29°59' E 121°50'0 0.0
2015-May-16 18:28N 29°59' E 121°50'0 0.0
2015-May-16 17:28N 29°59' E 121°50'0 0.0
2015-May-16 16:28N 29°59' E 121°50'0 0.0
2015-May-16 15:21N 29°59' E 121°50'0 0.0
2015-May-16 14:33N 29°59' E 121°50'0 0.0
2015-May-16 13:32N 29°59' E 121°50'0 0.0
2015-May-16 12:32N 29°59' E 121°50'0 0.0
2015-May-16 11:31N 29°59' E 121°50'0 0.0
2015-May-16 10:33N 29°59' E 121°50'4 4.0
2015-May-16 09:33N 29°57' E 121°54'1212.4
2015-May-16 08:34N 29°55' E 122°08'1111.0
2015-May-16 07:33N 29°47' E 122°16'1010.2
2015-May-16 06:33N 29°43' E 122°27'1212.2
2015-May-16 05:33N 29°51' E 122°38'1414.3
2015-May-16 04:34N 30°03' E 122°46'1414.1
2015-May-16 03:33N 30°17' E 122°49'1813.5
2015-May-16 02:15N 30°29' E 122°35'1413.3
2015-May-16 01:12N 30°33' E 122°19'812.3
2015-May-16 00:33N 30°34' E 122°10'5 0.3
2015-May-15 08:33N 30°36' E 122°05'1110.3
2015-May-15 07:29N 30°33' E 122°17'1110.2
2015-May-15 06:27N 30°31' E 122°29'  

Dump ship's entire track history